Etusivu
Satelliittikuvat 10 päivän ennusteetIlmastoMerisää Syklonit Salamointi LentoasematUKK Uutiskirje Muuta
Sää : Eurooppa Afrikka Pohjois-Amerikka Etelä-Amerikka Aasia Australia-Oseania Muut
Kielet Yhteydenotto

Kittilä, Suomi

Kittilän lentoasema

Leveyspiiri: 67-42N, Pituuspiiri: 024-51E, korkeus merenpinnasta: 196 m


METAR: EFKT 290120Z AUTO 23003KT CAVOK 06/05 Q1001
TAF: EFKT 281422Z 2815/2818 18008KT 9999 -SHRA BKN018 TEMPO 2815/2818 6000 BKN008

Aika: 04:57 (01:57 UTC)

Tämänhetkinen sää

Tämä raportti tehtiin 37 minuuttia sitten, kello 01.20 UTC
Tuuli 3 kn lounaasta
Lämpötila 6°C
Kosteus 93%
Ilmanpaine 1001 hPa
Näkyvyys 10 km tai enemmän
ei pilviä alle 1500 m:ssä eikä cumulonimbus-pilviä

Muuta yksikköjä

Sääennuste

Tämä raportti tehtiin 11 tuntia ja 35 minuuttia sitten, kello 14.22 UTC
Ennuste voimassa 28. päivästä klo 15 UTC - 28. päivään klo 18 UTC
Tuuli 8 kn etelästä
Näkyvyys 10 km tai enemmän
Hajonneita pilviä 1800 ft:n korkeudessa
heikkoja vesikuuroja
Ajoittain
28. päivästä klo 15 UTC - 28. päivään klo 18 UTC
Näkyvyys: 6000 m
Hajonneita pilviä 800 ft:n korkeudessa
Tällä sivustolla oleviin tietoihin sovelletaan vastuuvapauslauseketta
Sää : Eurooppa Afrikka Pohjois-Amerikka Etelä-Amerikka Aasia Australia-Oseania Muut
Satelliittikuvat 10 päivän ennusteetIlmastoMerisää Syklonit Salamointi LentoasematUKK Kielet Yhteydenotto Uutiskirje Muuta